createdAt,value
2022-08-12T00:00:44.067Z,0.00
2022-08-12T00:02:04.248Z,0.00
2022-08-12T00:02:45.151Z,0.00
2022-08-12T00:03:44.032Z,0.00
2022-08-12T00:04:44.023Z,0.00
2022-08-12T00:06:01.846Z,0.00
2022-08-12T00:06:45.001Z,0.00
2022-08-12T00:07:44.003Z,0.00
2022-08-12T00:08:43.984Z,0.00
2022-08-12T00:09:43.970Z,0.00
2022-08-12T00:10:43.966Z,0.00
2022-08-12T00:11:43.947Z,0.00
2022-08-12T00:12:43.952Z,0.00
2022-08-12T00:13:43.938Z,0.00
2022-08-12T00:14:43.931Z,0.00
2022-08-12T00:15:43.906Z,0.00
2022-08-12T00:16:43.895Z,0.00
2022-08-12T00:17:43.892Z,0.00
2022-08-12T00:18:43.872Z,0.00
2022-08-12T00:19:43.887Z,0.00
2022-08-12T00:20:43.849Z,0.00
2022-08-12T00:21:43.840Z,0.00
2022-08-12T00:22:43.839Z,0.00
2022-08-12T00:23:43.824Z,0.00
2022-08-12T00:24:43.809Z,0.00
2022-08-12T00:26:20.182Z,0.00
2022-08-12T00:26:44.786Z,0.00
2022-08-12T00:27:44.523Z,0.00
2022-08-12T00:28:43.767Z,0.00
2022-08-12T00:29:47.768Z,0.00
2022-08-12T00:30:43.740Z,0.00
2022-08-12T00:31:43.739Z,0.00
2022-08-12T00:32:50.954Z,0.00
2022-08-12T00:33:52.393Z,0.00
2022-08-12T00:34:44.695Z,0.00
2022-08-12T00:35:44.442Z,0.00
2022-08-12T00:36:43.681Z,0.00
2022-08-12T00:37:43.681Z,0.00
2022-08-12T00:38:43.654Z,0.00
2022-08-12T00:39:43.681Z,0.00
2022-08-12T00:40:43.632Z,0.00
2022-08-12T00:41:43.629Z,0.00
2022-08-12T00:42:43.699Z,0.00
2022-08-12T00:43:43.602Z,0.00
2022-08-12T00:44:43.592Z,0.00
2022-08-12T00:45:43.580Z,0.00
2022-08-12T00:46:43.569Z,0.00
2022-08-12T00:47:43.568Z,0.00
2022-08-12T00:48:43.548Z,0.00
2022-08-12T00:49:43.538Z,0.00
2022-08-12T00:50:44.523Z,0.00
2022-08-12T00:51:43.514Z,0.00
2022-08-12T00:52:43.516Z,0.00
2022-08-12T00:53:43.492Z,0.00
2022-08-12T00:54:43.480Z,0.00
2022-08-12T00:55:43.472Z,0.00
2022-08-12T00:56:43.464Z,0.00
2022-08-12T00:57:43.462Z,0.00
2022-08-12T00:58:43.438Z,0.00
2022-08-12T00:59:43.428Z,0.00
2022-08-12T01:00:43.416Z,0.00
2022-08-12T01:02:11.524Z,0.00
2022-08-12T01:02:44.407Z,0.00
2022-08-12T01:03:43.386Z,0.00
2022-08-12T01:04:43.376Z,0.00
2022-08-12T01:05:43.369Z,0.00
2022-08-12T01:06:43.353Z,0.00
2022-08-12T01:07:43.353Z,0.00
2022-08-12T01:08:43.329Z,0.00
2022-08-12T01:09:43.322Z,0.00
2022-08-12T01:10:43.310Z,0.00
2022-08-12T01:11:43.302Z,0.00
2022-08-12T01:12:43.299Z,0.00
2022-08-12T01:13:43.281Z,0.00
2022-08-12T01:14:43.267Z,0.00
2022-08-12T01:15:43.260Z,0.00
2022-08-12T01:16:43.247Z,0.00
2022-08-12T01:17:43.248Z,0.00
2022-08-12T01:18:43.222Z,0.00
2022-08-12T01:19:43.213Z,0.00
2022-08-12T01:20:43.201Z,0.00
2022-08-12T01:21:43.191Z,0.00
2022-08-12T01:22:43.192Z,0.00
2022-08-12T01:23:43.177Z,0.00
2022-08-12T01:24:43.158Z,0.00
2022-08-12T01:25:56.017Z,0.00
2022-08-12T01:26:44.143Z,0.00
2022-08-12T01:27:43.136Z,0.00
2022-08-12T01:28:43.116Z,0.00
2022-08-12T01:29:43.105Z,0.00
2022-08-12T01:30:43.095Z,0.00
2022-08-12T01:31:43.085Z,0.00
2022-08-12T01:32:43.096Z,0.00
2022-08-12T01:33:43.062Z,0.00
2022-08-12T01:34:43.056Z,0.00
2022-08-12T01:35:43.042Z,0.00
2022-08-12T01:36:43.029Z,0.00
2022-08-12T01:37:43.033Z,0.00
2022-08-12T01:38:43.006Z,0.00
2022-08-12T01:40:35.755Z,0.00
2022-08-12T01:40:46.979Z,0.00
2022-08-12T01:41:42.977Z,0.00
2022-08-12T01:42:43.973Z,0.00
2022-08-12T01:43:42.959Z,0.00
2022-08-12T01:44:42.946Z,0.00
2022-08-12T01:45:43.721Z,0.00
2022-08-12T01:46:42.922Z,0.00
2022-08-12T01:47:42.934Z,0.00
2022-08-12T01:48:42.901Z,0.00
2022-08-12T01:49:42.890Z,0.00
2022-08-12T01:50:43.083Z,0.00
2022-08-12T01:52:20.547Z,0.00
2022-08-12T01:52:43.873Z,0.00
2022-08-12T01:53:50.798Z,0.00
2022-08-12T01:54:43.838Z,0.00
2022-08-12T01:55:42.830Z,0.00
2022-08-12T01:56:42.839Z,0.00
2022-08-12T01:57:58.194Z,0.00
2022-08-12T01:58:43.793Z,0.00
2022-08-12T01:59:42.783Z,0.00
2022-08-12T02:00:43.385Z,0.00
2022-08-12T02:01:42.824Z,0.00
2022-08-12T02:02:42.765Z,0.00
2022-08-12T02:03:42.742Z,0.00
2022-08-12T02:04:42.730Z,0.00
2022-08-12T02:05:42.725Z,0.00
2022-08-12T02:06:42.709Z,0.00
2022-08-12T02:07:42.706Z,0.00
2022-08-12T02:08:42.685Z,0.00
2022-08-12T02:09:42.687Z,0.00
2022-08-12T02:10:49.845Z,0.00
2022-08-12T02:11:43.650Z,0.00
2022-08-12T02:12:42.884Z,0.00
2022-08-12T02:13:48.878Z,0.00
2022-08-12T02:14:43.621Z,0.00
2022-08-12T02:15:42.618Z,0.00
2022-08-12T02:16:42.600Z,0.00
2022-08-12T02:17:55.410Z,0.00
2022-08-12T02:18:43.579Z,0.00
2022-08-12T02:19:42.571Z,0.00
2022-08-12T02:20:52.145Z,0.00
2022-08-12T02:21:43.543Z,0.00
2022-08-12T02:22:42.547Z,0.00
2022-08-12T02:23:42.523Z,0.00
2022-08-12T02:24:42.511Z,0.00
2022-08-12T02:25:42.503Z,0.00
2022-08-12T02:26:42.490Z,0.00
2022-08-12T02:27:42.493Z,0.00
2022-08-12T02:28:42.468Z,0.00
2022-08-12T02:29:42.461Z,0.00
2022-08-12T02:30:42.699Z,0.00
2022-08-12T02:31:42.438Z,0.00
2022-08-12T02:32:42.432Z,0.00
2022-08-12T02:33:42.418Z,0.00
2022-08-12T02:34:42.418Z,0.00
2022-08-12T02:35:42.399Z,0.00
2022-08-12T02:36:42.386Z,0.00
2022-08-12T02:37:42.389Z,0.00
2022-08-12T02:38:42.361Z,0.00
2022-08-12T02:39:42.426Z,0.00
2022-08-12T02:40:42.346Z,0.00
2022-08-12T02:41:42.341Z,0.00
2022-08-12T02:42:42.318Z,0.00
2022-08-12T02:43:43.150Z,0.00
2022-08-12T02:44:42.298Z,0.00
2022-08-12T02:45:42.290Z,0.00
2022-08-12T02:46:42.284Z,0.00
2022-08-12T02:47:59.204Z,0.00
2022-08-12T02:48:43.250Z,0.00
2022-08-12T02:49:42.243Z,0.00
2022-08-12T02:50:42.241Z,0.00
2022-08-12T02:51:42.234Z,0.00
2022-08-12T02:52:42.392Z,0.00
2022-08-12T02:53:42.200Z,0.00
2022-08-12T02:54:42.190Z,0.00
2022-08-12T02:55:42.177Z,0.00
2022-08-12T02:56:42.183Z,0.00
2022-08-12T02:57:43.161Z,0.00
2022-08-12T02:58:45.237Z,0.00
2022-08-12T02:59:42.133Z,0.00
2022-08-12T03:00:42.155Z,0.00
2022-08-12T03:01:47.652Z,0.00
2022-08-12T03:02:43.101Z,0.00
2022-08-12T03:03:42.089Z,0.00
2022-08-12T03:04:44.030Z,0.00
2022-08-12T03:05:44.409Z,0.00
2022-08-12T03:06:42.066Z,0.00
2022-08-12T03:07:56.527Z,0.00
2022-08-12T03:08:43.033Z,4.00
2022-08-12T03:10:02.214Z,4.00
2022-08-12T03:10:44.058Z,0.00
2022-08-12T03:11:48.688Z,0.00
2022-08-12T03:12:50.776Z,4.00
2022-08-12T03:13:42.984Z,0.00
2022-08-12T03:14:41.977Z,4.00
2022-08-12T03:15:41.960Z,4.00
2022-08-12T03:16:41.964Z,4.00
2022-08-12T03:17:41.938Z,4.00
2022-08-12T03:18:45.565Z,4.00
2022-08-12T03:20:09.422Z,4.00
2022-08-12T03:20:42.915Z,8.00
2022-08-12T03:21:55.562Z,8.00
2022-08-12T03:22:43.029Z,8.00
2022-08-12T03:23:41.870Z,8.00
2022-08-12T03:24:41.862Z,12.00
2022-08-12T03:25:41.859Z,12.00
2022-08-12T03:26:41.852Z,12.00
2022-08-12T03:27:41.829Z,16.00
2022-08-12T03:28:41.819Z,20.00
2022-08-12T03:29:43.003Z,20.00
2022-08-12T03:30:42.799Z,20.00
2022-08-12T03:31:41.801Z,24.00
2022-08-12T03:32:41.779Z,32.00
2022-08-12T03:33:41.766Z,32.00
2022-08-12T03:34:41.757Z,36.00
2022-08-12T03:35:41.983Z,40.00
2022-08-12T03:36:41.746Z,48.00
2022-08-12T03:37:41.721Z,48.00
2022-08-12T03:38:41.710Z,52.00
2022-08-12T03:39:41.772Z,60.00
2022-08-12T03:40:41.689Z,68.00
2022-08-12T03:41:41.685Z,72.00
2022-08-12T03:42:41.994Z,76.00
2022-08-12T03:43:41.661Z,84.00
2022-08-12T03:44:41.646Z,92.00
2022-08-12T03:45:52.226Z,100.00
2022-08-12T03:46:42.639Z,108.00
2022-08-12T03:47:41.613Z,116.00
2022-08-12T03:48:41.602Z,124.00
2022-08-12T03:49:41.594Z,136.00
2022-08-12T03:50:41.581Z,144.00
2022-08-12T03:51:41.581Z,152.00
2022-08-12T03:52:41.807Z,164.00
2022-08-12T03:53:41.561Z,176.00
2022-08-12T03:54:42.682Z,192.00
2022-08-12T03:55:41.526Z,200.00
2022-08-12T03:56:41.608Z,212.00
2022-08-12T03:57:41.502Z,228.00
2022-08-12T03:58:41.494Z,240.00
2022-08-12T03:59:41.482Z,252.00
2022-08-12T04:00:41.489Z,268.00
2022-08-12T04:01:41.476Z,284.00
2022-08-12T04:02:41.680Z,296.00
2022-08-12T04:03:41.449Z,308.00
2022-08-12T04:04:41.431Z,324.00
2022-08-12T04:05:54.760Z,344.00
2022-08-12T04:06:42.419Z,356.00
2022-08-12T04:07:54.699Z,372.00
2022-08-12T04:08:42.396Z,388.00
2022-08-12T04:09:41.380Z,408.00
2022-08-12T04:10:41.363Z,424.00
2022-08-12T04:11:46.866Z,444.00
2022-08-12T04:12:42.415Z,456.00
2022-08-12T04:13:41.333Z,472.00
2022-08-12T04:14:41.320Z,492.00
2022-08-12T04:15:41.310Z,512.00
2022-08-12T04:16:41.311Z,536.00
2022-08-12T04:18:06.430Z,556.00
2022-08-12T04:18:42.277Z,572.00
2022-08-12T04:19:41.265Z,596.00
2022-08-12T04:20:41.258Z,620.00
2022-08-12T04:21:42.145Z,640.00
2022-08-12T04:22:42.233Z,660.00
2022-08-12T04:23:44.952Z,684.00
2022-08-12T04:24:42.214Z,708.00
2022-08-12T04:25:41.201Z,732.00
2022-08-12T04:26:41.208Z,760.00
2022-08-12T04:27:41.179Z,812.00
2022-08-12T04:28:41.175Z,916.00
2022-08-12T04:30:16.476Z,956.00
2022-08-12T04:30:42.149Z,1048.00
2022-08-12T04:31:41.147Z,1172.00
2022-08-12T04:32:44.464Z,1068.00
2022-08-12T04:33:41.113Z,924.00
2022-08-12T04:34:41.103Z,1280.00
2022-08-12T04:35:41.094Z,1664.00
2022-08-12T04:36:41.094Z,1376.00
2022-08-12T04:37:58.627Z,2160.00
2022-08-12T04:38:42.092Z,2700.00
2022-08-12T04:39:41.148Z,2088.00
2022-08-12T04:40:41.040Z,1416.00
2022-08-12T04:41:57.523Z,1116.00
2022-08-12T04:42:42.131Z,1068.00
2022-08-12T04:43:59.747Z,1096.00
2022-08-12T04:44:42.000Z,1128.00
2022-08-12T04:45:40.984Z,1192.00
2022-08-12T04:46:40.983Z,1200.00
2022-08-12T04:47:40.961Z,1212.00
2022-08-12T04:48:40.976Z,1228.00
2022-08-12T04:49:40.976Z,1244.00
2022-08-12T04:50:40.937Z,1284.00
2022-08-12T04:51:40.928Z,1380.00
2022-08-12T04:52:41.024Z,1372.00
2022-08-12T04:53:40.896Z,1412.00
2022-08-12T04:54:40.887Z,1572.00
2022-08-12T04:55:40.878Z,1704.00
2022-08-12T04:56:40.878Z,1684.00
2022-08-12T04:57:40.853Z,1564.00
2022-08-12T04:58:40.844Z,1500.00
2022-08-12T04:59:47.531Z,1508.00
2022-08-12T05:00:41.831Z,1516.00
2022-08-12T05:01:40.836Z,1564.00
2022-08-12T05:02:41.050Z,1604.00
2022-08-12T05:03:46.791Z,1596.00
2022-08-12T05:04:41.778Z,1592.00
2022-08-12T05:05:40.789Z,1600.00
2022-08-12T05:06:40.768Z,1620.00
2022-08-12T05:07:46.527Z,1632.00
2022-08-12T05:08:41.738Z,1636.00
2022-08-12T05:10:00.998Z,1648.00
2022-08-12T05:10:41.712Z,1652.00
2022-08-12T05:11:53.768Z,1656.00
2022-08-12T05:12:41.948Z,1668.00
2022-08-12T05:13:40.686Z,1708.00
2022-08-12T05:14:40.679Z,1808.00
2022-08-12T05:16:02.442Z,1876.00
2022-08-12T05:16:41.661Z,1896.00
2022-08-12T05:17:40.641Z,1884.00
2022-08-12T05:18:40.627Z,1844.00
2022-08-12T05:19:41.615Z,1820.00
2022-08-12T05:20:40.628Z,2080.00
2022-08-12T05:21:40.600Z,2520.00
2022-08-12T05:22:40.856Z,2800.00
2022-08-12T05:23:40.585Z,2728.00
2022-08-12T05:24:40.564Z,2368.00
2022-08-12T05:25:40.554Z,2168.00
2022-08-12T05:26:40.553Z,2000.00
2022-08-12T05:27:40.536Z,1940.00
2022-08-12T05:28:41.522Z,1976.00
2022-08-12T05:30:07.126Z,2100.00
2022-08-12T05:30:41.501Z,2436.00
2022-08-12T05:31:48.216Z,2884.00
2022-08-12T05:32:41.762Z,3156.00
2022-08-12T05:33:40.517Z,3136.00
2022-08-12T05:34:40.467Z,3148.00
2022-08-12T05:35:40.450Z,3140.00
2022-08-12T05:36:40.449Z,2788.00
2022-08-12T05:37:40.426Z,2328.00
2022-08-12T05:38:40.421Z,2264.00
2022-08-12T05:39:40.486Z,2152.00
2022-08-12T05:40:40.401Z,2140.00
2022-08-12T05:41:40.397Z,2176.00
2022-08-12T05:42:40.376Z,2196.00
2022-08-12T05:43:40.364Z,2272.00
2022-08-12T05:44:40.352Z,2312.00
2022-08-12T05:45:44.654Z,2328.00
2022-08-12T05:46:40.344Z,2332.00
2022-08-12T05:47:53.372Z,2328.00
2022-08-12T05:48:41.311Z,2344.00
2022-08-12T05:49:40.300Z,2308.00
2022-08-12T05:50:40.292Z,2272.00
2022-08-12T05:51:41.853Z,2288.00
2022-08-12T05:52:40.445Z,2324.00
2022-08-12T05:53:40.257Z,2332.00
2022-08-12T05:54:56.533Z,2512.00
2022-08-12T05:55:41.257Z,2536.00
2022-08-12T05:56:40.239Z,2452.00
2022-08-12T05:57:40.211Z,2380.00
2022-08-12T05:58:40.207Z,2372.00
2022-08-12T05:59:40.191Z,2384.00
2022-08-12T06:00:40.183Z,2404.00
2022-08-12T06:02:12.057Z,2412.00
2022-08-12T06:02:41.417Z,2416.00
2022-08-12T06:03:40.249Z,2432.00
2022-08-12T06:04:40.146Z,2460.00
2022-08-12T06:05:52.573Z,2472.00
2022-08-12T06:06:41.131Z,2512.00
2022-08-12T06:08:02.097Z,2560.00
2022-08-12T06:08:41.100Z,2608.00
2022-08-12T06:09:40.087Z,2644.00
2022-08-12T06:10:40.093Z,2716.00
2022-08-12T06:11:40.066Z,2756.00
2022-08-12T06:12:41.371Z,2812.00
2022-08-12T06:13:54.551Z,2812.00
2022-08-12T06:14:41.974Z,2860.00
2022-08-12T06:15:40.027Z,2916.00
2022-08-12T06:16:40.028Z,2960.00
2022-08-12T06:17:40.000Z,2956.00
2022-08-12T06:18:40.015Z,3004.00
2022-08-12T06:20:26.683Z,3032.00
2022-08-12T06:20:41.477Z,3024.00
2022-08-12T06:21:39.967Z,3072.00
2022-08-12T06:22:40.060Z,3068.00
2022-08-12T06:23:42.632Z,3100.00
2022-08-12T06:24:39.929Z,3136.00
2022-08-12T06:25:39.942Z,3136.00
2022-08-12T06:26:39.924Z,3192.00
2022-08-12T06:27:39.898Z,3224.00
2022-08-12T06:28:40.883Z,3256.00
2022-08-12T06:30:08.415Z,3204.00
2022-08-12T06:30:40.906Z,3292.00
2022-08-12T06:31:39.861Z,3296.00
2022-08-12T06:32:51.742Z,3332.00
2022-08-12T06:33:55.306Z,3368.00
2022-08-12T06:35:25.739Z,3400.00
2022-08-12T06:35:48.329Z,3444.00
2022-08-12T06:36:40.800Z,3716.00
2022-08-12T06:37:39.784Z,3960.00
2022-08-12T06:38:39.776Z,3632.00
2022-08-12T06:39:39.834Z,5344.00
2022-08-12T06:40:39.759Z,7852.00
2022-08-12T06:41:39.749Z,7668.00
2022-08-12T06:42:40.732Z,7428.00
2022-08-12T06:44:07.016Z,5216.00
2022-08-12T06:44:40.720Z,4540.00
2022-08-12T06:45:45.121Z,4272.00
2022-08-12T06:46:40.698Z,4232.00
2022-08-12T06:47:39.676Z,4032.00
2022-08-12T06:48:39.667Z,4080.00
2022-08-12T06:49:39.676Z,4308.00
2022-08-12T06:50:40.327Z,4164.00
2022-08-12T06:51:39.647Z,4208.00
2022-08-12T06:52:39.776Z,4464.00
2022-08-12T06:53:39.620Z,4588.00
2022-08-12T06:54:39.601Z,3956.00
2022-08-12T06:55:57.549Z,4596.00
2022-08-12T06:57:02.959Z,5960.00
2022-08-12T06:58:05.132Z,8820.00
2022-08-12T06:58:40.558Z,9908.00
2022-08-12T06:59:39.545Z,10480.00
2022-08-12T07:00:39.620Z,10740.00
2022-08-12T07:01:39.537Z,10616.00
2022-08-12T07:02:39.833Z,10796.00
2022-08-12T07:03:39.507Z,11164.00
2022-08-12T07:04:39.817Z,10444.00
2022-08-12T07:05:39.486Z,10540.00
2022-08-12T07:06:39.484Z,11292.00
2022-08-12T07:07:39.459Z,11040.00
2022-08-12T07:08:39.451Z,10408.00
2022-08-12T07:10:01.487Z,10692.00
2022-08-12T07:10:40.431Z,10752.00
2022-08-12T07:11:39.429Z,10588.00
2022-08-12T07:12:39.588Z,10456.00
2022-08-12T07:14:02.670Z,10240.00
2022-08-12T07:14:42.087Z,9904.00
2022-08-12T07:15:39.376Z,9604.00
2022-08-12T07:16:39.388Z,9508.00
2022-08-12T07:17:39.359Z,9436.00
2022-08-12T07:18:39.346Z,9400.00
2022-08-12T07:19:45.130Z,9304.00
2022-08-12T07:20:52.192Z,9308.00
2022-08-12T07:22:01.711Z,9308.00
2022-08-12T07:22:40.512Z,9328.00
2022-08-12T07:23:39.299Z,9368.00
2022-08-12T07:24:39.285Z,9472.00
2022-08-12T07:25:41.566Z,9596.00
2022-08-12T07:26:39.264Z,9764.00
2022-08-12T07:27:40.251Z,10216.00
2022-08-12T07:28:39.243Z,11856.00
2022-08-12T07:29:58.099Z,13536.00
2022-08-12T07:30:40.235Z,15200.00
2022-08-12T07:31:39.224Z,16608.00
2022-08-12T07:32:39.218Z,17952.00
2022-08-12T07:33:39.195Z,19008.00
2022-08-12T07:34:39.182Z,19904.00
2022-08-12T07:35:39.186Z,19808.00
2022-08-12T07:36:39.167Z,20768.00
2022-08-12T07:37:39.154Z,22752.00
2022-08-12T07:38:39.144Z,24096.00
2022-08-12T07:39:51.303Z,22528.00
2022-08-12T07:40:40.142Z,21152.00
2022-08-12T07:41:39.112Z,21568.00
2022-08-12T07:42:39.167Z,22560.00
2022-08-12T07:43:39.284Z,23968.00
2022-08-12T07:44:39.082Z,25568.00
2022-08-12T07:45:39.086Z,25056.00
2022-08-12T07:46:39.063Z,23712.00
2022-08-12T07:47:39.060Z,23072.00
2022-08-12T07:48:39.043Z,23392.00
2022-08-12T07:50:05.838Z,23968.00
2022-08-12T07:50:40.037Z,24864.00
2022-08-12T07:51:39.020Z,25184.00
2022-08-12T07:52:39.140Z,26240.00
2022-08-12T07:53:54.823Z,27360.00
2022-08-12T07:54:39.984Z,27968.00
2022-08-12T07:55:39.010Z,28128.00
2022-08-12T07:56:38.968Z,28224.00
2022-08-12T07:57:38.958Z,27360.00
2022-08-12T07:58:38.950Z,27520.00
2022-08-12T07:59:38.943Z,28992.00
2022-08-12T08:00:38.938Z,29632.00
2022-08-12T08:01:39.017Z,29024.00
2022-08-12T08:02:39.073Z,27776.00
2022-08-12T08:03:47.694Z,27840.00
2022-08-12T08:04:39.886Z,28576.00
2022-08-12T08:05:38.891Z,28800.00
2022-08-12T08:06:38.870Z,29152.00
2022-08-12T08:07:38.860Z,30624.00
2022-08-12T08:08:38.879Z,30144.00
2022-08-12T08:09:38.847Z,29376.00
2022-08-12T08:10:38.850Z,28704.00
2022-08-12T08:11:38.823Z,28384.00
2022-08-12T08:12:38.810Z,29408.00
2022-08-12T08:13:38.805Z,30272.00
2022-08-12T08:14:38.788Z,29568.00
2022-08-12T08:16:01.657Z,30464.00
2022-08-12T08:16:39.771Z,32288.00
2022-08-12T08:17:38.764Z,33088.00
2022-08-12T08:18:38.748Z,33792.00
2022-08-12T08:20:02.173Z,33984.00
2022-08-12T08:20:39.728Z,34144.00
2022-08-12T08:21:38.723Z,34528.00
2022-08-12T08:22:41.095Z,35008.00
2022-08-12T08:23:38.703Z,34720.00
2022-08-12T08:24:38.702Z,34144.00
2022-08-12T08:25:38.688Z,34880.00
2022-08-12T08:26:38.673Z,34432.00
2022-08-12T08:27:38.663Z,33760.00
2022-08-12T08:28:38.656Z,34016.00
2022-08-12T08:29:38.661Z,34208.00
2022-08-12T08:30:38.635Z,33504.00
2022-08-12T08:31:39.826Z,33664.00
2022-08-12T08:32:38.745Z,33728.00
2022-08-12T08:34:04.961Z,34080.00
2022-08-12T08:34:54.904Z,35040.00
2022-08-12T08:35:47.707Z,34624.00
2022-08-12T08:36:39.595Z,34272.00
2022-08-12T08:37:38.579Z,33760.00
2022-08-12T08:38:38.555Z,32672.00
2022-08-12T08:39:38.613Z,32640.00
2022-08-12T08:40:38.544Z,34208.00
2022-08-12T08:42:17.367Z,36608.00
2022-08-12T08:42:39.618Z,37120.00
2022-08-12T08:43:44.205Z,36608.00
2022-08-12T08:44:39.526Z,35424.00
2022-08-12T08:45:38.496Z,34336.00
2022-08-12T08:46:38.510Z,35488.00
2022-08-12T08:47:38.494Z,36160.00
2022-08-12T08:48:38.463Z,35840.00
2022-08-12T08:49:38.469Z,35552.00
2022-08-12T08:50:38.447Z,35264.00
2022-08-12T08:51:38.435Z,35072.00
2022-08-12T08:52:45.526Z,34496.00
2022-08-12T08:53:39.415Z,34144.00
2022-08-12T08:54:38.422Z,35072.00
2022-08-12T08:56:03.679Z,35552.00
2022-08-12T08:56:39.390Z,35328.00
2022-08-12T08:57:43.459Z,36032.00
2022-08-12T08:58:39.368Z,36288.00
2022-08-12T08:59:38.429Z,36352.00
2022-08-12T09:00:38.351Z,35392.00
2022-08-12T09:01:38.590Z,36800.00
2022-08-12T09:02:38.325Z,39584.00
2022-08-12T09:05:12.475Z,40992.00
2022-08-12T09:05:13.206Z,39936.00
2022-08-12T09:06:01.732Z,42272.00
2022-08-12T09:06:39.380Z,42400.00
2022-08-12T09:08:39.275Z,43200.00
2022-08-12T09:10:02.512Z,42432.00
2022-08-12T09:10:39.247Z,39488.00
2022-08-12T09:12:39.294Z,40096.00
2022-08-12T09:14:11.823Z,41440.00
2022-08-12T09:14:39.221Z,41824.00
2022-08-12T09:15:38.215Z,42432.00
2022-08-12T09:16:42.682Z,43648.00
2022-08-12T09:17:42.063Z,43200.00
2022-08-12T09:18:38.172Z,43072.00
2022-08-12T09:19:38.179Z,44032.00
2022-08-12T09:20:38.150Z,45600.00
2022-08-12T09:21:54.151Z,45856.00
2022-08-12T09:22:39.166Z,45600.00
2022-08-12T09:23:57.330Z,44800.00
2022-08-12T09:24:39.169Z,45376.00
2022-08-12T09:25:38.106Z,46368.00
2022-08-12T09:26:46.421Z,46144.00
2022-08-12T09:28:30.965Z,45280.00
2022-08-12T09:28:39.104Z,44704.00
2022-08-12T09:30:11.926Z,45440.00
2022-08-12T09:30:41.030Z,46080.00
2022-08-12T09:32:03.334Z,45568.00
2022-08-12T09:33:04.226Z,45952.00
2022-08-12T09:34:25.615Z,47232.00
2022-08-12T09:34:42.734Z,47104.00
2022-08-12T09:35:42.588Z,47168.00
2022-08-12T09:36:57.838Z,48480.00
2022-08-12T09:37:57.725Z,47936.00
2022-08-12T09:38:38.978Z,47008.00
2022-08-12T09:40:04.997Z,46944.00
2022-08-12T09:40:56.150Z,48832.00
2022-08-12T09:42:09.951Z,49280.00
2022-08-12T09:42:49.238Z,47776.00
2022-08-12T09:43:38.964Z,45856.00
2022-08-12T09:44:40.016Z,45152.00
2022-08-12T09:46:11.950Z,46976.00
2022-08-12T09:46:39.010Z,48224.00
2022-08-12T09:47:37.896Z,48544.00
2022-08-12T09:48:39.382Z,48928.00
2022-08-12T09:49:42.395Z,48384.00
2022-08-12T09:50:37.864Z,49344.00
2022-08-12T09:51:43.840Z,50624.00
2022-08-12T09:52:38.843Z,52000.00
2022-08-12T09:53:39.758Z,51872.00
2022-08-12T09:54:37.865Z,51232.00
2022-08-12T09:56:05.598Z,49376.00
2022-08-12T09:57:03.061Z,48128.00
2022-08-12T09:58:07.277Z,49600.00
2022-08-12T09:58:57.077Z,51360.00
2022-08-12T10:00:17.240Z,52768.00
2022-08-12T10:00:51.797Z,52128.00
2022-08-12T10:02:45.237Z,50656.00
2022-08-12T10:02:45.915Z,51776.00
2022-08-12T10:03:38.763Z,50336.00
2022-08-12T10:04:38.767Z,50112.00
2022-08-12T10:06:20.112Z,53184.00
2022-08-12T10:06:54.636Z,55168.00
2022-08-12T10:07:39.677Z,53696.00
2022-08-12T10:08:37.694Z,51392.00
2022-08-12T10:09:58.242Z,52096.00
2022-08-12T10:10:42.428Z,52576.00
2022-08-12T10:12:10.265Z,52768.00
2022-08-12T10:12:38.657Z,52992.00
2022-08-12T10:13:41.441Z,54080.00
2022-08-12T10:14:37.641Z,53824.00
2022-08-12T10:16:02.749Z,52448.00
2022-08-12T10:16:39.646Z,49984.00
2022-08-12T10:18:06.342Z,49728.00
2022-08-12T10:18:52.426Z,52000.00
2022-08-12T10:19:38.599Z,54112.00
2022-08-12T10:20:37.602Z,55968.00
2022-08-12T10:21:37.963Z,56384.00
2022-08-12T10:22:40.138Z,57152.00
2022-08-12T10:23:40.057Z,56896.00
2022-08-12T10:24:37.558Z,56640.00
2022-08-12T10:26:18.511Z,56992.00
2022-08-12T10:26:39.517Z,56800.00
2022-08-12T10:28:03.988Z,57728.00
2022-08-12T10:28:38.963Z,59616.00
2022-08-12T10:30:38.460Z,59296.00
2022-08-12T10:30:46.899Z,40256.00
2022-08-12T10:32:21.684Z,10024.00
2022-08-12T10:32:44.546Z,4996.00
2022-08-12T10:33:54.106Z,4272.00
2022-08-12T10:34:38.471Z,4164.00
2022-08-12T10:35:38.351Z,4192.00
2022-08-12T10:36:40.064Z,4272.00
2022-08-12T10:38:38.768Z,4320.00
2022-08-12T10:38:41.439Z,4268.00
2022-08-12T10:40:01.000Z,4240.00
2022-08-12T10:40:53.189Z,4320.00
2022-08-12T10:41:58.207Z,4436.00
2022-08-12T10:42:38.378Z,4296.00
2022-08-12T10:43:54.848Z,4356.00
2022-08-12T10:44:38.366Z,4840.00
2022-08-12T10:45:38.523Z,4804.00
2022-08-12T10:46:37.335Z,4744.00
2022-08-12T10:48:07.083Z,3640.00
2022-08-12T10:48:38.334Z,4072.00
2022-08-12T10:50:03.046Z,4028.00
2022-08-12T10:51:00.391Z,4020.00
2022-08-12T10:52:03.214Z,4132.00
2022-08-12T10:52:38.493Z,3988.00
2022-08-12T10:53:44.856Z,4204.00
2022-08-12T10:54:38.250Z,4540.00
2022-08-12T10:55:37.245Z,4972.00
2022-08-12T10:56:37.234Z,4792.00
2022-08-12T10:58:13.390Z,4428.00
2022-08-12T10:58:38.220Z,4340.00
2022-08-12T10:59:58.024Z,4152.00
2022-08-12T11:00:45.119Z,4164.00
2022-08-12T11:04:18.715Z,4384.00
2022-08-12T11:04:19.378Z,4420.00
2022-08-12T11:04:27.267Z,4352.00
2022-08-12T11:04:48.913Z,4428.00
2022-08-12T11:07:02.962Z,4608.00
2022-08-12T11:07:09.189Z,4580.00
2022-08-12T11:08:36.997Z,4580.00
2022-08-12T11:08:43.286Z,4492.00
2022-08-12T11:09:51.203Z,4436.00
2022-08-12T11:10:38.196Z,4500.00
2022-08-12T11:12:34.817Z,4508.00
2022-08-12T11:12:58.273Z,4208.00
2022-08-12T11:13:45.768Z,4044.00
2022-08-12T11:14:49.590Z,3892.00
2022-08-12T11:16:18.877Z,3804.00
2022-08-12T11:16:38.029Z,3880.00
2022-08-12T11:17:51.866Z,4140.00
2022-08-12T11:18:38.017Z,4468.00
2022-08-12T11:19:36.995Z,4688.00
2022-08-12T11:20:36.983Z,4288.00
2022-08-12T11:21:56.145Z,4668.00
2022-08-12T11:22:37.989Z,4504.00
2022-08-12T11:23:37.728Z,4340.00
2022-08-12T11:24:36.971Z,4320.00
2022-08-12T11:25:56.725Z,4384.00
2022-08-12T11:26:37.919Z,4624.00
2022-08-12T11:27:37.008Z,4764.00
2022-08-12T11:28:38.078Z,4584.00
2022-08-12T11:30:03.704Z,4428.00
2022-08-12T11:30:37.894Z,4272.00
2022-08-12T11:31:55.846Z,4228.00
2022-08-12T11:32:38.370Z,4232.00
2022-08-12T11:34:04.590Z,4084.00
2022-08-12T11:34:54.280Z,3832.00
2022-08-12T11:35:37.826Z,3352.00
2022-08-12T11:36:39.437Z,3216.00
2022-08-12T11:37:59.097Z,3572.00
2022-08-12T11:38:37.762Z,3564.00
2022-08-12T11:40:37.778Z,3524.00
2022-08-12T11:41:36.749Z,3672.00
2022-08-12T11:42:39.669Z,3836.00
2022-08-12T11:43:50.542Z,3352.00
2022-08-12T11:44:43.016Z,3256.00
2022-08-12T11:45:38.828Z,3332.00
2022-08-12T11:46:36.683Z,3340.00
2022-08-12T11:47:36.741Z,3292.00
2022-08-12T11:48:52.363Z,3232.00
2022-08-12T11:49:37.649Z,3268.00
2022-08-12T11:50:42.141Z,3380.00
2022-08-12T11:51:39.752Z,3424.00
2022-08-12T11:53:56.916Z,3356.00
2022-08-12T11:53:57.543Z,3420.00
2022-08-12T11:54:37.602Z,3596.00
2022-08-12T11:55:36.590Z,3620.00
2022-08-12T11:56:38.784Z,3836.00
2022-08-12T11:58:01.294Z,3932.00
2022-08-12T12:00:49.041Z,4092.00
2022-08-12T12:02:01.267Z,4300.00
2022-08-12T12:02:01.887Z,4172.00
2022-08-12T12:02:37.673Z,3360.00
2022-08-12T12:03:41.580Z,3220.00
2022-08-12T12:04:37.500Z,3132.00
2022-08-12T12:05:39.691Z,3580.00
2022-08-12T12:06:37.480Z,3532.00
2022-08-12T12:08:38.650Z,3532.00
2022-08-12T12:08:42.627Z,3584.00
2022-08-12T12:09:50.693Z,3600.00
2022-08-12T12:10:37.454Z,3448.00
2022-08-12T12:11:49.258Z,3348.00
2022-08-12T12:12:37.421Z,3316.00
2022-08-12T12:14:08.508Z,3268.00
2022-08-12T12:14:38.043Z,3160.00
2022-08-12T12:15:40.915Z,3108.00
2022-08-12T12:16:38.099Z,3140.00
2022-08-12T12:17:38.530Z,3104.00
2022-08-12T12:18:36.378Z,3376.00
2022-08-12T12:19:45.202Z,3460.00
2022-08-12T12:20:37.340Z,3592.00
2022-08-12T12:21:48.750Z,3672.00
2022-08-12T12:22:37.423Z,3708.00
2022-08-12T12:23:36.569Z,3648.00
2022-08-12T12:24:36.300Z,3352.00
2022-08-12T12:26:06.570Z,3256.00